Tiempo atmosférico en la estación meteorológica de Plasencia, Cáceres (420 m.)



Fecha
DESCASC
Temp. máxima en grados centígrados (hora)
DESCASC
Temp. mínima en grados centígrados (hora)
DESCASC
Temp. media en grados centígrados
DESCASC
Racha de viento máxima en m/sg (hora)
DESCASC
Velocidad máxima media en intervalos de 10 minutos(hora)
DESCASC
Precipitaciones diarias en mm
DESCASC
Precipitaciones de 00:00 a 06:00 en mm
DESCASC
Precipitaciones de 06:00 a 12:00 en mm
DESCASC
Precipitaciones de 12:00 a 18:00 en mm
DESCASC
Precipitaciones de 18:00 a 24:00 en mm
DESCASC
18-08-2019 34 (16:00) 19.1 (08:40) 26.6 9.44 (20:50) 4.44 (21:00) 0 0 0 0 0
17-08-2019 37.9 (18:00) 21.8 (08:40) 29.9 8.61 (03:00) 3.33 (18:20) 0 0 0 0 0
16-08-2019 38.1 (17:50) 22.8 (08:10) 30.4 10.56 (01:50) 5 (01:50) 0 0 0 0 0
15-08-2019 38.9 (17:30) 24.3 (00:00) 31.6 10.28 (01:00) 4.17 (01:20) 0 0 0 0 0
14-08-2019 36.6 (18:30) 18.6 (00:00) 27.6 6.94 (15:40) 2.5 (00:30) 0 0 0 0 0
13-08-2019 33.9 (18:00) 16.8 (00:00) 25.4 8.61 (02:40) 3.61 (02:40) 0 0 0 0 0
12-08-2019 30.3 (17:30) 15.8 (00:00) 23 14.72 (02:10) 4.72 (02:10) 0 0 0 0 0
11-08-2019 28.9 (18:20) 16.4 (00:00) 22.6 9.72 (04:10) 3.89 (02:40) 0 0 0 0 0
10-08-2019 30.1 (17:30) 15.6 (00:00) 22.9 6.67 (17:30) 2.5 (16:20) 0 0 0 0 0
09-08-2019 25.8 (00:00) 18 (00:00) 21.9 9.17 (17:00) 3.61 (16:00) 4.4 0 1.1 3.2 0.1
08-08-2019 34.6 (16:30) 19.7 (00:00) 27.1 9.17 (15:50) 4.72 (18:50) 0 0 0 0 0
07-08-2019 26.5 (19:30) 20.6 (00:00) 23.6 5.83 (00:20) 2.5 (10:50) 2.1 0 0 2 0.1
06-08-2019 35.9 (16:20) 19.9 (00:00) 27.9 7.78 (17:40) 3.33 (16:40) 0 0 0 0 0
05-08-2019 36.2 (17:20) 18.1 (00:00) 27.2 6.94 (23:10) 2.78 (15:30) 0 0 0 0 0
04-08-2019 36.2 (16:30) 21.1 (00:00) 28.7 8.33 (03:40) 3.06 (16:30) 0 0 0 0 0
03-08-2019 36.5 (17:30) 20.1 (00:00) 28.3 7.22 (16:20) 3.33 (16:50) 0 0 0 0 0
02-08-2019 37 (17:50) 18.3 (00:00) 27.6 5.83 (18:00) 2.5 (16:00) 0 0 0 0 0
01-08-2019 35.7 (17:50) 20 (00:00) 27.9 8.61 (17:30) 3.61 (19:10) 0 0 0 0 0
31-07-2019 36.8 (17:20) 19.4 (00:00) 28.1 8.33 (11:20) 3.33 (11:20) 0 0 0 0 0
30-07-2019 32.6 (16:50) 16.1 (00:00) 24.3 15 (05:40) 5.28 (05:40) 0 0 0 0 0
29-07-2019 32.1 (17:50) 16.7 (00:00) 24.4 10.28 (16:50) 3.89 (16:50) 0 0 0 0 0
28-07-2019 33.1 (19:10) 18.1 (00:00) 25.6 8.61 (02:20) 3.06 (02:20) 0 0 0 0 0
27-07-2019 29 (18:50) 15.9 (00:00) 22.4 11.11 (18:10) 3.89 (22:40) 0 0 0 0 0
26-07-2019 31.5 (17:50) 18.4 (00:00) 24.9 11.39 (19:20) 4.72 (19:40) 0 0 0 0 0
25-07-2019 35.2 (18:20) 21.7 (00:00) 28.5 12.5 (22:20) 4.72 (19:40) 0 0 0 0 0
24-07-2019 39.7 (17:20) 25.3 (00:00) 32.5 8.61 (15:20) 3.33 (05:00) 0 0 0 0 0
23-07-2019 39.7 (17:30) 23.4 (00:00) 31.6 12.78 (04:30) 5.28 (05:20) 0.9 0.9 0 0 0

Gráficas

Temp. máximas Temp. mínimas Temp. medias Precipitaciones Rachas de viento máximas Velocidades máximas media en intervalos de 10 minutos

Datos horarios

Fecha y hora oficial Temperatura (ºC) Velocidad del viento (km/h) Dirección del viento Racha (km/h) Dirección de racha Precipitación (mm) Presión (hPa) Tendencia (hPa) Humedad (%)
2019-08-21 23:00:00 27.6 5 Este 13 Este 0 -- -- 45
2019-08-21 22:00:00 29.3 5 Este 13 Este 0 -- -- 41
2019-08-21 21:00:00 31 3 Noroeste 17 Noroeste 0 -- -- 34
2019-08-21 20:00:00 33.4 0 Calma 9 Sur 0 -- -- 36
2019-08-21 19:00:00 34.3 3 Sur 15 Norte 0 -- -- 38
2019-08-21 18:00:00 35.1 4 Sudeste 14 Nordeste 0 -- -- 34
2019-08-21 17:00:00 35.1 5 Sudoeste 14 Sudoeste 0 -- -- 38
2019-08-21 16:00:00 33.9 4 Sudeste 18 Este 0 -- -- 42
2019-08-21 15:00:00 33 3 Sudeste 27 Este 0 -- -- 48
2019-08-21 14:00:00 30.3 9 Este 25 Este 0 -- -- 52
2019-08-21 13:00:00 29.5 7 Sudeste 35 Sudeste 0 -- -- 56
2019-08-21 12:00:00 27.6 8 Sudeste 29 Sudeste 0 -- -- 61
2019-08-21 11:00:00 26.3 12 Sudeste 31 Este 0 -- -- 63
2019-08-21 10:00:00 25.2 11 Sudeste 39 Sudeste 0 -- -- 66
2019-08-21 09:00:00 24.1 9 Este 30 Sudeste 0 -- -- 66
2019-08-21 08:00:00 23.3 11 Sudeste 34 Sudeste 0 -- -- 65
2019-08-21 07:00:00 23.5 8 Sudeste 35 Sudeste 0 -- -- 63
2019-08-21 06:00:00 23.8 10 Este 34 Este 0 -- -- 61
2019-08-21 05:00:00 24.5 10 Este 40 Este 0 -- -- 59
2019-08-21 04:00:00 25.3 9 Este 32 Sudeste 0 -- -- 56
2019-08-21 03:00:00 26.1 8 Este 33 Este 0 -- -- 51
2019-08-21 02:00:00 25.7 6 Sudeste 21 Este 0 -- -- 45
2019-08-21 01:00:00 25.6 4 Nordeste 13 Nordeste 0 -- -- 40
2019-08-21 00:00:00 27 5 Nordeste 20 Nordeste 0 -- -- 38
2019-08-20 23:00:00 27.8 6 Nordeste 36 Nordeste 0 -- -- 38
2019-08-20 22:00:00 29.2 12 Norte 31 Norte 0 -- -- 36
2019-08-20 21:00:00 30.4 8 Norte 23 Norte 0 -- -- 36
2019-08-20 20:00:00 32.4 5 Norte 19 Norte 0 -- -- 35
2019-08-20 19:00:00 34.2 5 Norte 21 Sudoeste 0 -- -- 34
2019-08-20 18:00:00 34.3 5 Norte 25 Oeste 0 -- -- 34
2019-08-20 17:00:00 35 0 Calma 19 Sudeste 0 -- -- 35
2019-08-20 16:00:00 33.2 4 Este 21 Nordeste 0 -- -- 37
2019-08-20 15:00:00 32.5 4 Norte 20 Noroeste 0 -- -- 39
2019-08-20 14:00:00 31.4 3 Noroeste 19 Nordeste 0 -- -- 42
2019-08-20 13:00:00 29.8 5 Norte 17 Noroeste 0 -- -- 46
2019-08-20 12:00:00 27 6 Norte 18 Noroeste 0 -- -- 51
2019-08-20 11:00:00 24.6 4 Norte 17 Noroeste 0 -- -- 55
2019-08-20 10:00:00 22.2 4 Norte 16 Norte 0 -- -- 61
2019-08-20 09:00:00 19.5 3 Norte 15 Norte 0 -- -- 65
2019-08-20 08:00:00 19.5 5 Nordeste 28 Norte 0 -- -- 65
2019-08-20 07:00:00 19.9 3 Nordeste 18 Nordeste 0 -- -- 62
2019-08-20 06:00:00 20.6 6 Norte 21 Nordeste 0 -- -- 62
2019-08-20 05:00:00 21.6 8 Norte 24 Norte 0 -- -- 59
2019-08-20 04:00:00 22.9 6 Norte 23 Norte 0 -- -- 55
2019-08-20 03:00:00 23.5 6 Noroeste 24 Norte 0 -- -- 49
2019-08-20 02:00:00 24.1 6 Noroeste 19 Noroeste 0 -- -- 49
2019-08-20 01:00:00 25 6 Noroeste 18 Noroeste 0 -- -- 49
2019-08-20 00:00:00 25.6 4 Noroeste 15 Noroeste 0 -- -- 48
2019-08-19 23:00:00 26.5 8 Nordeste 20 Nordeste 0 -- -- 46
2019-08-19 22:00:00 27.2 5 Norte 15 Norte 0 -- -- 42
2019-08-19 21:00:00 28.1 3 Noroeste 8 Noroeste 0 -- -- 38
2019-08-19 20:00:00 28.7 4 Noroeste 11 Noroeste 0 -- -- 37
2019-08-19 19:00:00 29.4 4 Noroeste 16 Oeste 0 -- -- 33
2019-08-19 18:00:00 29.7 7 Oeste 18 Oeste 0 -- -- 30
2019-08-19 17:00:00 30.5 6 Oeste 24 Oeste 0 -- -- 35
2019-08-19 16:00:00 30.4 8 Oeste 23 Sudoeste 0 -- -- 39
2019-08-19 15:00:00 31.3 7 Oeste 22 Oeste 0 -- -- 42
2019-08-19 14:00:00 29.9 7 Oeste 25 Oeste 0 -- -- 45
2019-08-19 13:00:00 28.8 4 Oeste 17 Sudoeste 0 -- -- 47
2019-08-19 12:00:00 26.8 0 Calma 12 Oeste 0 -- -- 55
2019-08-19 11:00:00 24.1 2 Oeste 10 Sudeste 0 -- -- 62
2019-08-19 10:00:00 22.5 2 Noroeste 16 Oeste 0 -- -- 66
2019-08-19 09:00:00 18.8 4 Oeste 14 Oeste 0 -- -- 80
2019-08-19 08:00:00 17.9 0 Calma 17 Oeste 0 -- -- 86
2019-08-19 07:00:00 18.3 5 Oeste 22 Noroeste 0 -- -- 84
2019-08-19 06:00:00 19.5 9 Noroeste 21 Oeste 0 -- -- 79
2019-08-19 05:00:00 20.1 5 Sudoeste 21 Noroeste 0 -- -- 76
2019-08-19 04:00:00 22.1 6 Noroeste 26 Norte 0 -- -- 69
2019-08-19 03:00:00 22.9 6 Noroeste 25 Noroeste 0 -- -- 68
2019-08-19 02:00:00 23 9 Noroeste 24 Noroeste 0 -- -- 69
2019-08-19 01:00:00 23.9 7 Noroeste 19 Noroeste 0 -- -- 65
2019-08-19 00:00:00 25.1 6 Oeste 17 Noroeste 0 -- -- 61
2019-08-18 23:00:00 26.3 6 Noroeste 23 Oeste 0 -- -- 57
2019-08-18 22:00:00 27.8 10 Oeste 32 Oeste 0 -- -- 52
2019-08-18 21:00:00 30.1 16 Oeste 34 Oeste 0 -- -- 46
2019-08-18 20:00:00 31.5 11 Oeste 26 Oeste 0 -- -- 40
2019-08-18 19:00:00 33.7 11 Oeste 30 Sudoeste 0 -- -- 35
2019-08-18 18:00:00 33.4 9 Oeste 25 Oeste 0 -- -- 35
2019-08-18 17:00:00 32.6 13 Oeste 27 Sudoeste 0 -- -- 36
2019-08-18 16:00:00 33.4 6 Oeste 23 Sudoeste 0 -- -- 35
2019-08-18 15:00:00 32.4 7 Oeste 31 Sudoeste 0 -- -- 39
2019-08-18 14:00:00 31 8 Oeste 24 Oeste 0 -- -- 42
2019-08-18 13:00:00 29.5 8 Oeste 21 Oeste 0 -- -- 48
2019-08-18 12:00:00 26.6 6 Noroeste 18 Noroeste 0 -- -- 56
2019-08-18 11:00:00 24 5 Oeste 16 Oeste 0 -- -- 62
2019-08-18 10:00:00 22.2 5 Noroeste 13 Oeste 0 -- -- 67
2019-08-18 09:00:00 19.9 4 Noroeste 14 Oeste 0 -- -- 71
2019-08-18 08:00:00 19.3 6 Oeste 22 Noroeste 0 -- -- 72
2019-08-18 07:00:00 20.1 7 Noroeste 22 Oeste 0 -- -- 68
2019-08-18 06:00:00 21.2 5 Noroeste 14 Noroeste 0 -- -- 64
2019-08-18 05:00:00 22.2 4 Noroeste 10 Noroeste 0 -- -- 61
2019-08-18 04:00:00 23.3 4 Noroeste 10 Oeste 0 -- -- 55
2019-08-18 03:00:00 24.4 4 Oeste 13 Noroeste 0 -- -- 52
2019-08-18 02:00:00 25.4 4 Oeste 12 Oeste 0 -- -- 47
2019-08-18 01:00:00 27.3 5 Oeste 13 Sudoeste 0 -- -- 42
2019-08-18 00:00:00 28.5 0 Calma 13 Este 0 -- -- 36
2019-08-17 23:00:00 29.5 5 Este 10 Este 0 -- -- 34
2019-08-17 22:00:00 31.7 0 Calma 6 Noroeste 0 -- -- 31
2019-08-17 21:00:00 34.2 3 Oeste 12 Noroeste 0 -- -- 28
2019-08-17 20:00:00 35.9 5 Noroeste 23 Noroeste 0 -- -- 28
2019-08-17 19:00:00 37.2 10 Noroeste 24 Noroeste 0 -- -- 29
2019-08-17 18:00:00 37.6 8 Noroeste 29 Noroeste 0 -- -- 30
2019-08-17 17:00:00 37.7 8 Noroeste 24 Oeste 0 -- -- 31
2019-08-17 16:00:00 36.7 4 Norte 19 Sudoeste 0 -- -- 34
2019-08-17 15:00:00 36.3 3 Noroeste 17 Noroeste 0 -- -- 35
2019-08-17 14:00:00 35.6 3 Sudoeste 20 Oeste 0 -- -- 35
2019-08-17 13:00:00 33.4 2 Sudoeste 15 Oeste 0 -- -- 38
2019-08-17 12:00:00 30 2 Sudeste 16 Este 0 -- -- 42
2019-08-17 11:00:00 27.7 4 Sudeste 13 Este 0 -- -- 47
2019-08-17 10:00:00 24.4 3 Oeste 7 Sudoeste 0 -- -- 53
2019-08-17 09:00:00 22.2 0 Calma 3 Este 0 -- -- 55
2019-08-17 08:00:00 22.3 0 Calma 9 Oeste 0 -- -- 53
2019-08-17 07:00:00 22.5 0 Calma 7 Sudoeste 0 -- -- 50
2019-08-17 06:00:00 24.2 0 Calma 8 Sudoeste 0 -- -- 45
2019-08-17 05:00:00 26.2 4 Nordeste 17 Nordeste 0 -- -- 42
2019-08-17 04:00:00 26.9 5 Nordeste 25 Nordeste 0 -- -- 41
2019-08-17 03:00:00 27.9 7 Nordeste 31 Nordeste 0 -- -- 39
2019-08-17 02:00:00 28.6 9 Norte 26 Norte 0 -- -- 38
2019-08-17 01:00:00 29.6 4 Norte 23 Norte 0 -- -- 37
2019-08-17 00:00:00 30.3 8 Norte 30 Norte 0 -- -- 37
2019-08-16 23:00:00 31.8 7 Norte 25 Norte 0 -- -- 35
2019-08-16 22:00:00 32.9 3 Noroeste 12 Norte 0 -- -- 33
2019-08-16 21:00:00 34.8 5 Oeste 19 Oeste 0 -- -- 31
2019-08-16 20:00:00 36.1 6 Oeste 19 Oeste 0 -- -- 31
2019-08-16 19:00:00 37.2 9 Oeste 21 Oeste 0 -- -- 31
2019-08-16 18:00:00 37.7 8 Oeste 21 Oeste 0 -- -- 28
2019-08-16 17:00:00 37.5 5 Oeste 23 Oeste 0 -- -- 31
2019-08-16 16:00:00 36.4 9 Noroeste 31 Noroeste 0 -- -- 32
2019-08-16 15:00:00 36.1 9 Oeste 21 Oeste 0 -- -- 36
2019-08-16 14:00:00 35.3 5 Este 14 Sudeste 0 -- -- 37
2019-08-16 13:00:00 34.1 3 Este 13 Este 0 -- -- 39
2019-08-16 12:00:00 31.6 3 Oeste 11 Oeste 0 -- -- 42
2019-08-16 11:00:00 29.1 0 Calma 13 Este 0 -- -- 47
2019-08-16 10:00:00 26.6 3 Sudeste 9 Sudeste 0 -- -- 51
2019-08-16 09:00:00 23.3 0 Calma 6 Este 0 -- -- 58
2019-08-16 08:00:00 23 0 Calma 6 Sur 0 -- -- 56
2019-08-16 07:00:00 23.8 4 Sudoeste 7 Sudoeste 0 -- -- 53
2019-08-16 06:00:00 25.3 0 Calma 6 Sur 0 -- -- 49
2019-08-16 05:00:00 27.1 3 Sudeste 15 Nordeste 0 -- -- 45
2019-08-16 04:00:00 27.9 7 Nordeste 33 Norte 0 -- -- 42
2019-08-16 03:00:00 -- 10 Nordeste 36 Nordeste 0 -- -- --
2019-08-16 02:00:00 29.2 15 Nordeste 38 Nordeste 0 -- -- 40
2019-08-16 01:00:00 29.9 12 Norte 30 Norte 0 -- -- 38
2019-08-16 00:00:00 31.5 10 Norte 27 Norte 0 -- -- 35
2019-08-15 23:00:00 32 8 Norte 23 Norte 0 -- -- 33
2019-08-15 22:00:00 32.4 6 Noroeste 19 Noroeste 0 -- -- 32
2019-08-15 21:00:00 34.4 6 Oeste 22 Sudoeste 0 -- -- 30
2019-08-15 20:00:00 35.9 10 Oeste 22 Oeste 0 -- -- 29
2019-08-15 19:00:00 37.4 9 Oeste 22 Oeste 0 -- -- 29
2019-08-15 18:00:00 37.9 8 Oeste 26 Sudoeste 0 -- -- 28
2019-08-15 17:00:00 38 8 Oeste 22 Sudoeste 0 -- -- 30
2019-08-15 16:00:00 37.5 6 Noroeste 20 Norte 0 -- -- 32
2019-08-15 15:00:00 36.4 7 Oeste 21 Sudoeste 0 -- -- 34
2019-08-15 14:00:00 35.2 5 Oeste 17 Oeste 0 -- -- 38
2019-08-15 13:00:00 34.2 3 Sudeste 13 Oeste 0 -- -- 40
2019-08-15 12:00:00 31.6 6 Oeste 18 Noroeste 0 -- -- 42
2019-08-15 11:00:00 29.9 4 Oeste 19 Norte 0 -- -- 49
2019-08-15 10:00:00 27.1 4 Norte 14 Norte 0 -- -- 54
2019-08-15 09:00:00 25.4 5 Nordeste 21 Norte 0 -- -- 57
2019-08-15 08:00:00 24.4 6 Norte 28 Norte 0 -- -- 59
2019-08-15 07:00:00 24.7 9 Norte 24 Nordeste 0 -- -- 58
2019-08-15 06:00:00 25.1 9 Nordeste 24 Nordeste 0 -- -- 57
2019-08-15 05:00:00 25.9 5 Norte 27 Nordeste 0 -- -- 53
2019-08-15 04:00:00 26.5 4 Nordeste 18 Nordeste 0 -- -- 50
2019-08-15 03:00:00 27.4 9 Nordeste 32 Norte 0 -- -- 48
2019-08-15 02:00:00 28.4 14 Nordeste 36 Norte 0 -- -- 45
2019-08-15 01:00:00 28.4 15 Norte 37 Norte 0 -- -- 42
2019-08-15 00:00:00 30.2 6 Norte 18 Nordeste 0 -- -- 37
2019-08-14 23:00:00 30.3 5 Nordeste 13 Nordeste 0 -- -- 35
2019-08-14 22:00:00 30.7 2 Noroeste 9 Oeste 0 -- -- 32
2019-08-14 21:00:00 32.8 5 Oeste 16 Oeste 0 -- -- 29
2019-08-14 20:00:00 34.4 4 Oeste 17 Oeste 0 -- -- 28
2019-08-14 19:00:00 36.1 6 Oeste 15 Sudoeste 0 -- -- 26
2019-08-14 18:00:00 36 5 Oeste 21 Oeste 0 -- -- 26
2019-08-14 17:00:00 35.5 7 Oeste 21 Sudoeste 0 -- -- 26
2019-08-14 16:00:00 35.4 6 Noroeste 25 Sur 0 -- -- 27
2019-08-14 15:00:00 34.8 4 Noroeste 19 Norte 0 -- -- 27
2019-08-14 14:00:00 33.7 4 Noroeste 17 Oeste 0 -- -- 28
2019-08-14 13:00:00 31.8 2 Noroeste 12 Noroeste 0 -- -- 29
2019-08-14 12:00:00 29.3 4 Oeste 12 Oeste 0 -- -- 32
2019-08-14 11:00:00 26.7 5 Oeste 10 Oeste 0 -- -- 37
2019-08-14 10:00:00 23 0 Calma 5 Este 0 -- -- 46
2019-08-14 09:00:00 19.6 2 Este 7 Este 0 -- -- 49
2019-08-14 08:00:00 18.9 0 Calma 13 Este 0 -- -- 47
2019-08-14 07:00:00 19.4 4 Este 12 Este 0 -- -- 45
2019-08-14 06:00:00 19.9 4 Sudeste 8 Este 0 -- -- 42
2019-08-14 05:00:00 20.7 4 Este 9 Este 0 -- -- 40
2019-08-14 04:00:00 21 0 Calma 6 Sudeste 0 -- -- 38
2019-08-14 03:00:00 22.4 0 Calma 8 Sudeste 0 -- -- 36
2019-08-14 02:00:00 24 4 Nordeste 14 Nordeste 0 -- -- 33
2019-08-14 01:00:00 24.8 7 Este 22 Norte 0 -- -- 32
2019-08-14 00:00:00 25.5 6 Nordeste 21 Nordeste 0 -- -- 32
2019-08-13 23:00:00 27 8 Norte 27 Norte 0 -- -- 31
2019-08-13 22:00:00 27.8 4 Norte 14 Nordeste 0 -- -- 30
2019-08-13 21:00:00 29.7 5 Oeste 16 Oeste 0 -- -- 28
2019-08-13 20:00:00 31.2 5 Oeste 21 Sudoeste 0 -- -- 28
2019-08-13 19:00:00 32.9 5 Oeste 22 Oeste 0 -- -- 25
2019-08-13 18:00:00 33.6 5 Noroeste 18 Sudoeste 0 -- -- 25
2019-08-13 17:00:00 33.7 3 Noroeste 21 Noroeste 0 -- -- 25
2019-08-13 16:00:00 32.2 2 Norte 17 Oeste 0 -- -- 27
2019-08-13 15:00:00 31.4 4 Oeste 17 Noroeste 0 -- -- 28
2019-08-13 14:00:00 30 4 Oeste 13 Norte 0 -- -- 32
2019-08-13 13:00:00 28.3 4 Este 14 Este 0 -- -- 37
2019-08-13 12:00:00 25.9 2 Sudeste 10 Oeste 0 -- -- 40
2019-08-13 11:00:00 23.3 3 Oeste 10 Sudoeste 0 -- -- 42
2019-08-13 10:00:00 21.1 3 Este 9 Este 0 -- -- 45
2019-08-13 09:00:00 18 0 Calma 12 Este 0 -- -- 48
2019-08-13 08:00:00 16.9 0 Calma 6 Este 0 -- -- 48
2019-08-13 07:00:00 17.9 0 Calma 12 Este 0 -- -- 45
2019-08-13 06:00:00 19.3 3 Este 15 Este 0 -- -- 42
2019-08-13 05:00:00 18.8 3 Este 9 Este 0 -- -- 42
2019-08-13 04:00:00 20.6 0 Calma 17 Este 0 -- -- 38
2019-08-13 03:00:00 22.4 6 Este 31 Nordeste 0 -- -- 35
2019-08-13 02:00:00 22.7 6 Nordeste 23 Este 0 -- -- 35
2019-08-13 01:00:00 22.8 5 Nordeste 28 Nordeste 0 -- -- 34
2019-08-13 00:00:00 23.3 8 Nordeste 22 Nordeste 0 -- -- 34
2019-08-12 23:00:00 23.9 8 Nordeste 22 Norte 0 -- -- 33
2019-08-12 22:00:00 24.2 8 Nordeste 34 Nordeste 0 -- -- 32
2019-08-12 21:00:00 25.2 9 Norte 37 Norte 0 -- -- 31
2019-08-12 20:00:00 26.7 11 Norte 32 Norte 0 -- -- 29
2019-08-12 19:00:00 29.4 8 Norte 28 Norte 0 -- -- 28
2019-08-12 18:00:00 29.6 7 Norte 26 Nordeste 0 -- -- 29
2019-08-12 17:00:00 29.5 9 Noroeste 27 Noroeste 0 -- -- 31
2019-08-12 16:00:00 29.5 4 Norte 28 Nordeste 0 -- -- 32
2019-08-12 15:00:00 27.8 5 Nordeste 26 Nordeste 0 -- -- 35
2019-08-12 14:00:00 26.6 8 Norte 27 Norte 0 -- -- 36
2019-08-12 13:00:00 25.1 10 Norte 35 Nordeste 0 -- -- 39
2019-08-12 12:00:00 24 9 Norte 25 Norte 0 -- -- 42
2019-08-12 11:00:00 20.9 9 Norte 28 Nordeste 0 -- -- 49
2019-08-12 10:00:00 18.4 8 Norte 31 Norte 0 -- -- 55
2019-08-12 09:00:00 16.1 9 Norte 31 Norte 0 -- -- 59
2019-08-12 08:00:00 16 9 Norte 30 Norte 0 -- -- 59
2019-08-12 07:00:00 16 8 Norte 27 Nordeste 0 -- -- 59
2019-08-12 06:00:00 16.1 5 Nordeste 32 Nordeste 0 -- -- 59
2019-08-12 05:00:00 16.5 10 Norte 35 Noroeste 0 -- -- 58
2019-08-12 04:00:00 17.4 12 Norte 34 Norte 0 -- -- 55
2019-08-12 03:00:00 18.4 13 Norte 53 Nordeste 0 -- -- 51
2019-08-12 02:00:00 19.3 15 Norte 38 Norte 0 -- -- 49
2019-08-12 01:00:00 20 11 Norte 37 Nordeste 0 -- -- 47
2019-08-12 00:00:00 21 9 Norte 35 Noroeste 0 -- -- 42
2019-08-11 23:00:00 21.7 9 Noroeste 26 Noroeste 0 -- -- 37
2019-08-11 22:00:00 22.8 7 Noroeste 25 Oeste 0 -- -- 35
2019-08-11 21:00:00 24.5 9 Noroeste 28 Oeste 0 -- -- 32
2019-08-11 20:00:00 26.5 12 Noroeste 30 Noroeste 0 -- -- 30
2019-08-11 19:00:00 27.9 7 Noroeste 32 Oeste 0 -- -- 28
2019-08-11 18:00:00 28.6 10 Noroeste 31 Oeste 0 -- -- 29
2019-08-11 17:00:00 28.1 9 Noroeste 31 Oeste 0 -- -- 29
2019-08-11 16:00:00 28 10 Oeste 30 Oeste 0 -- -- 33
2019-08-11 15:00:00 26.6 9 Noroeste 34 Sudoeste 0 -- -- 39
2019-08-11 14:00:00 26.2 9 Oeste 29 Oeste 0 -- -- 45
2019-08-11 13:00:00 24.3 8 Noroeste 28 Oeste 0 -- -- 49
2019-08-11 12:00:00 23.8 9 Noroeste 23 Nordeste 0 -- -- 54
2019-08-11 11:00:00 22.4 8 Norte 28 Nordeste 0 -- -- 60
2019-08-11 10:00:00 19.5 6 Noroeste 21 Noroeste 0 -- -- 70
2019-08-11 09:00:00 16.8 8 Noroeste 18 Oeste 0 -- -- 76
2019-08-11 08:00:00 16.8 5 Noroeste 18 Noroeste 0 -- -- 74
2019-08-11 07:00:00 18 5 Oeste 27 Noroeste 0 -- -- 65
2019-08-11 06:00:00 19.4 10 Noroeste 31 Oeste 0 -- -- 59
2019-08-11 05:00:00 21.9 5 Nordeste 35 Norte 0 -- -- 49
2019-08-11 04:00:00 21.7 5 Norte 31 Noroeste 0 -- -- 52
2019-08-11 03:00:00 22.4 9 Noroeste 34 Noroeste 0 -- -- 49
2019-08-11 02:00:00 23.1 11 Noroeste 32 Oeste 0 -- -- 46
2019-08-11 01:00:00 23.3 9 Noroeste 23 Noroeste 0 -- -- 46
2019-08-11 00:00:00 24.4 5 Noroeste 14 Noroeste 0 -- -- 42
2019-08-10 23:00:00 25.7 4 Oeste 9 Oeste 0 -- -- 38
2019-08-10 22:00:00 26.6 2 Oeste 9 Oeste 0 -- -- 37
2019-08-10 21:00:00 27.9 3 Oeste 14 Noroeste 0 -- -- 35
2019-08-10 20:00:00 28.6 4 Oeste 14 Oeste 0 -- -- 34
2019-08-10 19:00:00 29.3 4 Noroeste 18 Sudoeste 0 -- -- 33
2019-08-10 18:00:00 29.4 3 Noroeste 24 Sudoeste 0 -- -- 30
2019-08-10 17:00:00 29.3 6 Noroeste 23 Sudoeste 0 -- -- 34
2019-08-10 16:00:00 29.8 5 Noroeste 20 Oeste 0 -- -- 37
2019-08-10 15:00:00 28.7 4 Oeste 18 Oeste 0 -- -- 39
2019-08-10 14:00:00 27.2 7 Oeste 18 Noroeste 0 -- -- 42
2019-08-10 13:00:00 25.3 4 Oeste 15 Oeste 0 -- -- 50
2019-08-10 12:00:00 23.2 4 Noroeste 15 Noroeste 0 -- -- 59
2019-08-10 11:00:00 20.1 3 Oeste 15 Oeste 0 -- -- 75
2019-08-10 10:00:00 18.4 4 Noroeste 14 Noroeste 0 -- -- 82
2019-08-10 09:00:00 16.8 2 Noroeste 18 Noroeste 0 -- -- 85
2019-08-10 08:00:00 16 3 Norte 14 Norte 0 -- -- 90
2019-08-10 07:00:00 15.9 3 Sudoeste 8 Oeste 0 -- -- 88
2019-08-10 06:00:00 17.3 3 Norte 17 Nordeste 0 -- -- 76
2019-08-10 05:00:00 17.3 3 Noroeste 15 Noroeste 0 -- -- 82
2019-08-10 04:00:00 16.6 2 Sur 17 Oeste 0 -- -- 95
2019-08-10 03:00:00 17.8 8 Noroeste 23 Norte 0 -- -- 89
2019-08-10 02:00:00 19.8 7 Norte 24 Norte 0 -- -- 73
2019-08-10 01:00:00 18.7 5 Norte 17 Noroeste 0 -- -- 90
2019-08-10 00:00:00 18.3 0 Calma 12 Noroeste 0 -- -- 90
2019-08-09 23:00:00 18.1 0 Calma 10 Oeste 0 -- -- 89
2019-08-09 22:00:00 18.4 5 Oeste 16 Oeste 0.1 -- -- 88
2019-08-09 21:00:00 19.6 5 Oeste 19 Oeste 0 -- -- 83
2019-08-09 20:00:00 19.8 5 Oeste 17 Oeste 0 -- -- 82
2019-08-09 19:00:00 20.4 6 Oeste 15 Oeste 0 -- -- 85
2019-08-09 18:00:00 18.4 4 Noroeste 28 Noroeste 0.7 -- -- 95
2019-08-09 17:00:00 19.9 11 Oeste 33 Noroeste 0.1 -- -- 85
2019-08-09 16:00:00 20.5 13 Oeste 28 Oeste 0.1 -- -- 94
2019-08-09 15:00:00 21.5 8 Oeste 21 Sudoeste 0.1 -- -- 93
2019-08-09 14:00:00 22.2 4 Noroeste 19 Noroeste 0.4 -- -- 94
2019-08-09 13:00:00 22.7 7 Oeste 19 Oeste 1.8 -- -- 94
2019-08-09 12:00:00 22.1 4 Este 12 Este 1 -- -- 97
2019-08-09 11:00:00 22 4 Este 13 Sudeste 0.1 -- -- 95
2019-08-09 10:00:00 23.1 3 Sur 13 Sudeste 0 -- -- 86
2019-08-09 09:00:00 22.2 5 Este 15 Sudeste 0 -- -- 88
2019-08-09 08:00:00 22 2 Sur 12 Sudeste 0 -- -- 88
2019-08-09 07:00:00 22 0 Calma 12 Oeste 0 -- -- 88
2019-08-09 06:00:00 21.7 5 Sudoeste 12 Oeste 0 -- -- 88
2019-08-09 05:00:00 21.4 5 Oeste 13 Oeste 0 -- -- 88
2019-08-09 04:00:00 21.6 5 Oeste 18 Oeste 0 -- -- 86
2019-08-09 03:00:00 22.6 5 Oeste 14 Oeste 0 -- -- 80
2019-08-09 02:00:00 23.8 6 Oeste 18 Oeste 0 -- -- 75
2019-08-09 01:00:00 24.8 5 Oeste 17 Oeste 0 -- -- 68
2019-08-09 00:00:00 25.8 4 Oeste 19 Oeste 0 -- -- 62
2019-08-08 23:00:00 26.8 6 Oeste 16 Oeste 0 -- -- 59
2019-08-08 22:00:00 28 6 Oeste 23 Oeste 0 -- -- 56
2019-08-08 21:00:00 29.9 10 Oeste 27 Oeste 0 -- -- 51
2019-08-08 20:00:00 31.7 11 Oeste 28 Oeste 0 -- -- 48
2019-08-08 19:00:00 32.9 13 Oeste 31 Sudoeste 0 -- -- 44
2019-08-08 18:00:00 32.5 10 Oeste 33 Oeste 0 -- -- 44
2019-08-08 17:00:00 33.8 12 Oeste 27 Oeste 0 -- -- 41
2019-08-08 16:00:00 33.7 10 Oeste 33 Sudoeste 0 -- -- 42
2019-08-08 15:00:00 31.5 9 Oeste 28 Oeste 0 -- -- 51
2019-08-08 14:00:00 29.1 5 Noroeste 23 Oeste 0 -- -- 61
2019-08-08 13:00:00 29.8 0 Calma 15 Sur 0 -- -- 56
2019-08-08 12:00:00 27.2 4 Oeste 11 Oeste 0 -- -- 64
2019-08-08 11:00:00 25 4 Oeste 12 Oeste 0 -- -- 71
2019-08-08 10:00:00 23.5 0 Calma -- -- 0 -- -- 74
2019-08-08 09:00:00 21.1 0 Calma 6 Sudeste 0 -- -- 81
2019-08-08 08:00:00 19.9 0 Calma -- -- 0 -- -- 84
2019-08-08 07:00:00 20 0 Calma -- -- 0 -- -- 84
2019-08-08 06:00:00 20.2 0 Calma -- -- 0 -- -- 84
2019-08-08 05:00:00 20.1 0 Calma 7 Este 0 -- -- 82
2019-08-08 04:00:00 20.6 3 Este 10 Este 0 -- -- 76
2019-08-08 03:00:00 20.9 5 Este 11 Este 0 -- -- 76
2019-08-08 02:00:00 20.9 4 Este 12 Este 0 -- -- 76
2019-08-08 01:00:00 21.3 4 Este 9 Este 0 -- -- 76
2019-08-08 00:00:00 22.2 5 Este 9 Este 0 -- -- 73
2019-08-07 23:00:00 23.1 4 Este 7 Este 0 -- -- 70
2019-08-07 22:00:00 23.8 0 Calma 3 Oeste 0 -- -- 68
2019-08-07 21:00:00 24.8 0 Calma 13 Oeste 0 -- -- 64
2019-08-07 20:00:00 25.8 3 Oeste 11 Oeste 0 -- -- 61
2019-08-07 19:00:00 24.8 0 Calma 14 Oeste 0.1 -- -- 64
2019-08-07 18:00:00 25.3 4 Noroeste 12 Noroeste 0 -- -- 59
2019-08-07 17:00:00 23.7 2 Nordeste 12 Este 0 -- -- 67
2019-08-07 16:00:00 22.6 5 Este 14 Este 0 -- -- 81
2019-08-07 15:00:00 21.9 0 Calma 8 Sur 0.1 -- -- 84
2019-08-07 14:00:00 21.2 3 Sudoeste 9 Oeste 1.3 -- -- 94
2019-08-07 13:00:00 21.1 5 Oeste 12 Oeste 0.6 -- -- 90
2019-08-07 12:00:00 21.6 6 Oeste 14 Oeste 0 -- -- 83
2019-08-07 11:00:00 21.9 6 Oeste 18 Oeste 0 -- -- 81
2019-08-07 10:00:00 21.3 4 Oeste 15 Oeste 0 -- -- 82
2019-08-07 09:00:00 20.7 6 Oeste 16 Oeste 0 -- -- 83
2019-08-07 08:00:00 20.8 4 Oeste 17 Noroeste 0 -- -- 82
2019-08-07 07:00:00 21.1 5 Noroeste 18 Oeste 0 -- -- 80
2019-08-07 06:00:00 21.8 7 Oeste 16 Oeste 0 -- -- 76
2019-08-07 05:00:00 22.4 4 Oeste 16 Oeste 0 -- -- 73
2019-08-07 04:00:00 23.1 5 Oeste 14 Oeste 0 -- -- 70
2019-08-07 03:00:00 23.8 6 Oeste 18 Noroeste 0 -- -- 67
2019-08-07 02:00:00 24.5 6 Oeste 19 Noroeste 0 -- -- 63
2019-08-07 01:00:00 25.5 4 Noroeste 21 Oeste 0 -- -- 59
2019-08-07 00:00:00 26.4 9 Oeste 21 Oeste 0 -- -- 54
2019-08-06 23:00:00 28 9 Oeste 22 Oeste 0 -- -- 49
2019-08-06 22:00:00 29.3 6 Oeste 23 Oeste 0 -- -- 47
2019-08-06 21:00:00 31 8 Oeste 22 Oeste 0 -- -- 42
2019-08-06 20:00:00 33.3 11 Oeste 23 Noroeste 0 -- -- 41
2019-08-06 19:00:00 34.1 8 Oeste 24 Sudoeste 0 -- -- 40
2019-08-06 18:00:00 35.2 8 Oeste 28 Oeste 0 -- -- 40
2019-08-06 17:00:00 34.5 11 Oeste 23 Oeste 0 -- -- 39
2019-08-06 16:00:00 35.1 5 Oeste 22 Oeste 0 -- -- 40
2019-08-06 15:00:00 34.8 5 Oeste 20 Sudoeste 0 -- -- 42
2019-08-06 14:00:00 32.8 4 Oeste 19 Noroeste 0 -- -- 48
2019-08-06 13:00:00 31.4 4 Noroeste 16 Oeste 0 -- -- 50
2019-08-06 12:00:00 29.7 2 Sudoeste 12 Oeste 0 -- -- 52
2019-08-06 11:00:00 27.4 2 Sudeste 14 Este 0 -- -- 57
2019-08-06 10:00:00 23.7 4 Este 10 Sudeste 0 -- -- 64
2019-08-06 09:00:00 20.8 0 Calma 6 Este 0 -- -- 69
2019-08-06 08:00:00 20.1 2 Noroeste 7 Sudoeste 0 -- -- 69
2019-08-06 07:00:00 20.5 5 Oeste 20 Oeste 0 -- -- 66
2019-08-06 06:00:00 22.6 4 Noroeste 13 Oeste 0 -- -- 61
2019-08-06 05:00:00 23.6 5 Oeste 13 Oeste 0 -- -- 55
2019-08-06 04:00:00 23.1 2 Oeste 6 Sudeste 0 -- -- 48
2019-08-06 03:00:00 24.1 0 Calma 8 Sur 0 -- -- 45
2019-08-06 02:00:00 25.5 0 Calma 10 Noroeste 0 -- -- 42
2019-08-06 01:00:00 26 4 Este 7 Este 0 -- -- 40
2019-08-06 00:00:00 27.5 3 Este 25 Este 0 -- -- 36
2019-08-05 23:00:00 28.5 4 Este 13 Nordeste 0 -- -- 35
2019-08-05 22:00:00 30.6 0 Calma 6 Noroeste 0 -- -- 32
2019-08-05 21:00:00 32.9 4 Oeste 17 Oeste 0 -- -- 29
2019-08-05 20:00:00 34.4 5 Oeste 23 Oeste 0 -- -- 29
2019-08-05 19:00:00 35.8 7 Oeste 22 Oeste 0 -- -- 29
2019-08-05 18:00:00 36 9 Oeste 23 Noroeste 0 -- -- 29
2019-08-05 17:00:00 36 7 Noroeste 23 Noroeste 0 -- -- 31
2019-08-05 16:00:00 35.3 5 Noroeste 24 Sudoeste 0 -- -- 36
2019-08-05 15:00:00 33.8 8 Noroeste 23 Noroeste 0 -- -- 39
2019-08-05 14:00:00 32.4 5 Noroeste 16 Oeste 0 -- -- 46
2019-08-05 13:00:00 31.4 5 Oeste 16 Oeste 0 -- -- 47
2019-08-05 12:00:00 28.1 3 Oeste 12 Oeste 0 -- -- 56
2019-08-05 11:00:00 25.1 2 Noroeste 9 Oeste 0 -- -- 65
2019-08-05 10:00:00 21.8 2 Oeste 6 Oeste 0 -- -- 74
2019-08-05 09:00:00 19 0 Calma 4 Este 0 -- -- 80
2019-08-05 08:00:00 18.3 0 Calma 5 Sur 0 -- -- 79
2019-08-05 07:00:00 18.8 0 Calma 6 Sur 0 -- -- 76
2019-08-05 06:00:00 19.5 0 Calma 6 Este 0 -- -- 72
2019-08-05 05:00:00 20.4 3 Oeste 9 Noroeste 0 -- -- 69
2019-08-05 04:00:00 21.8 3 Noroeste 11 Noroeste 0 -- -- 65
2019-08-05 03:00:00 22.9 4 Noroeste 11 Noroeste 0 -- -- 59
2019-08-05 02:00:00 23.9 5 Oeste 12 Oeste 0 -- -- 54
2019-08-05 01:00:00 25.3 5 Oeste 20 Oeste 0 -- -- 47
2019-08-05 00:00:00 26.7 6 Oeste 20 Oeste 0 -- -- 45
2019-08-04 23:00:00 28.5 5 Oeste 22 Oeste 0 -- -- 42
2019-08-04 22:00:00 30.1 8 Oeste 21 Oeste 0 -- -- 41
2019-08-04 21:00:00 32.6 10 Oeste 22 Noroeste 0 -- -- 38
2019-08-04 20:00:00 34.3 8 Oeste 25 Noroeste 0 -- -- 35
2019-08-04 19:00:00 36 9 Oeste 28 Noroeste 0 -- -- 36
2019-08-04 18:00:00 36 8 Noroeste 28 Noroeste 0 -- -- 38
2019-08-04 17:00:00 36.1 8 Noroeste 28 Noroeste 0 -- -- 41
2019-08-04 16:00:00 35.4 6 Oeste 24 Sudoeste 0 -- -- 42
2019-08-04 15:00:00 34.5 5 Noroeste 20 Oeste 0 -- -- 45
2019-08-04 14:00:00 33.4 5 Noroeste 15 Noroeste 0 -- -- 48
2019-08-04 13:00:00 31.5 0 Calma 13 Noroeste 0 -- -- 51
2019-08-04 12:00:00 29.3 4 Oeste 13 Oeste 0 -- -- 55
2019-08-04 11:00:00 26.8 0 Calma 10 Oeste 0 -- -- 60
2019-08-04 10:00:00 24.3 2 Noroeste 8 Noroeste 0 -- -- 65
2019-08-04 09:00:00 21.8 3 Oeste 9 Oeste 0 -- -- 68
2019-08-04 08:00:00 21.2 4 Oeste 13 Sudoeste 0 -- -- 68
2019-08-04 07:00:00 21.8 3 Oeste 11 Sudoeste 0 -- -- 61
2019-08-04 06:00:00 24.5 0 Calma 20 Norte 0 -- -- 55
2019-08-04 05:00:00 25.2 5 Norte 24 Norte 0 -- -- 55
2019-08-04 04:00:00 25.3 9 Noroeste 30 Norte 0 -- -- 55
2019-08-04 03:00:00 24.5 3 Sudoeste 15 Oeste 0 -- -- 53
2019-08-04 02:00:00 25.7 0 Calma 8 Sudeste 0 -- -- 46
2019-08-04 01:00:00 26.8 0 Calma 21 Norte 0 -- -- 45
2019-08-04 00:00:00 27.8 0 Calma 13 Norte 0 -- -- 41
2019-08-03 23:00:00 29.2 5 Este 10 Este 0 -- -- 38
2019-08-03 22:00:00 31.3 0 Calma 10 Oeste 0 -- -- 34
2019-08-03 21:00:00 33.4 5 Oeste 17 Oeste 0 -- -- 32
2019-08-03 20:00:00 34.8 6 Oeste 23 Oeste 0 -- -- 33
2019-08-03 19:00:00 36.3 5 Oeste 25 Noroeste 0 -- -- 34
2019-08-03 18:00:00 36.1 10 Oeste 22 Oeste 0 -- -- 35
2019-08-03 17:00:00 35.8 8 Oeste 26 Noroeste 0 -- -- 37
2019-08-03 16:00:00 35.3 6 Noroeste 23 Oeste 0 -- -- 40
2019-08-03 15:00:00 34.4 4 Norte 20 Noroeste 0 -- -- 40
2019-08-03 14:00:00 34.1 7 Noroeste 20 Noroeste 0 -- -- 42
2019-08-03 13:00:00 32.9 3 Oeste 12 Sudoeste 0 -- -- 42
2019-08-03 12:00:00 30.7 3 Sudeste 21 Sudeste 0 -- -- 45
2019-08-03 11:00:00 28 5 Sudeste 18 Este 0 -- -- 54
2019-08-03 10:00:00 25.4 5 Sudeste 15 Sudeste 0 -- -- 56
2019-08-03 09:00:00 21.8 6 Este 13 Este 0 -- -- 53
2019-08-03 08:00:00 20.2 0 Calma 8 Este 0 -- -- 54
2019-08-03 07:00:00 20.5 3 Sudeste 8 Este 0 -- -- 53
2019-08-03 06:00:00 21.7 2 Este 8 Nordeste 0 -- -- 49
2019-08-03 05:00:00 23.4 3 Oeste 12 Oeste 0 -- -- 49
2019-08-03 04:00:00 22.7 4 Noroeste 9 Noroeste 0 -- -- 46
2019-08-03 03:00:00 23.5 0 Calma 7 Sudoeste 0 -- -- 45
2019-08-03 02:00:00 24.4 0 Calma 8 Sudoeste 0 -- -- 42
2019-08-03 01:00:00 26.1 5 Este 13 Este 0 -- -- 40
2019-08-03 00:00:00 27.3 5 Este 14 Nordeste 0 -- -- 37
2019-08-02 23:00:00 28.8 4 Este 11 Este 0 -- -- 33
2019-08-02 22:00:00 30.5 0 Calma 8 Oeste 0 -- -- 29
2019-08-02 21:00:00 33.4 5 Oeste 17 Noroeste 0 -- -- 28
2019-08-02 20:00:00 34.7 7 Oeste 20 Oeste 0 -- -- 29
2019-08-02 19:00:00 36.2 5 Noroeste 19 Oeste 0 -- -- 31
2019-08-02 18:00:00 36.2 8 Noroeste 21 Noroeste 0 -- -- 32
2019-08-02 17:00:00 35.7 6 Noroeste 19 Oeste 0 -- -- 35
2019-08-02 16:00:00 35.1 9 Oeste 18 Sudoeste 0 -- -- 36
2019-08-02 15:00:00 34.3 7 Oeste 18 Oeste 0 -- -- 37
2019-08-02 14:00:00 34 3 Sudoeste 16 Oeste 0 -- -- 32
2019-08-02 13:00:00 31.7 4 Oeste 15 Sudoeste 0 -- -- 41
2019-08-02 12:00:00 29.7 4 Sudoeste 12 Este 0 -- -- 47
2019-08-02 11:00:00 26.5 0 Calma 11 Sur 0 -- -- 52
2019-08-02 10:00:00 22.9 2 Sudeste 6 Este 0 -- -- 59
2019-08-02 09:00:00 19.5 0 Calma -- -- 0 -- -- 65
2019-08-02 08:00:00 18.4 0 Calma 10 Oeste 0 -- -- 63
2019-08-02 07:00:00 19.4 6 Oeste 12 Oeste 0 -- -- 60
2019-08-02 06:00:00 20.8 5 Oeste 16 Oeste 0 -- -- 56
2019-08-02 05:00:00 21.9 5 Oeste 13 Oeste 0 -- -- 54
2019-08-02 04:00:00 22 6 Oeste 17 Oeste 0 -- -- 52
2019-08-02 03:00:00 22.4 5 Sudoeste 14 Sudoeste 0 -- -- 51
2019-08-02 02:00:00 23.5 9 Sudoeste 18 Oeste 0 -- -- 48
2019-08-02 01:00:00 25.6 5 Noroeste 13 Oeste 0 -- -- 45
2019-08-02 00:00:00 26.8 5 Noroeste 18 Oeste 0 -- -- 42
2019-08-01 23:00:00 28.5 10 Oeste 27 Oeste 0 -- -- 38
2019-08-01 22:00:00 30.2 12 Oeste 23 Oeste 0 -- -- 35
2019-08-01 21:00:00 32.4 6 Oeste 23 Oeste 0 -- -- 32
2019-08-01 20:00:00 33.8 9 Oeste 26 Oeste 0 -- -- 31
2019-08-01 19:00:00 35.2 7 Oeste 28 Sudoeste 0 -- -- 32
2019-08-01 18:00:00 35.5 7 Oeste 31 Oeste 0 -- -- 32
2019-08-01 17:00:00 35 10 Oeste 28 Oeste 0 -- -- 32
2019-08-01 16:00:00 34.5 12 Oeste 29 Sudoeste 0 -- -- 31
2019-08-01 15:00:00 34.1 9 Oeste 25 Noroeste 0 -- -- 35
2019-08-01 14:00:00 32.5 9 Oeste 22 Noroeste 0 -- -- 44
2019-08-01 13:00:00 31.3 2 Este 12 Oeste 0 -- -- 47
2019-08-01 12:00:00 29.5 0 Calma 14 Sur 0 -- -- 51
2019-08-01 11:00:00 27.7 5 Sudeste 17 Sudeste 0 -- -- 57
2019-08-01 10:00:00 25.6 4 Sudeste 15 Sudeste 0 -- -- 60
2019-08-01 09:00:00 21.5 0 Calma 9 Este 0 -- -- 56
2019-08-01 08:00:00 20.6 4 Este 12 Este 0 -- -- 57
2019-08-01 07:00:00 20.3 5 Este 9 Este 0 -- -- 56
2019-08-01 06:00:00 21.5 0 Calma 10 Este 0 -- -- 52
2019-08-01 05:00:00 22 2 Este 6 Este 0 -- -- 52
2019-08-01 04:00:00 23.4 4 Oeste 13 Noroeste 0 -- -- 48
2019-08-01 03:00:00 24.5 3 Oeste 15 Noroeste 0 -- -- 45
2019-08-01 02:00:00 26.7 2 Este 21 Nordeste 0 -- -- 42
2019-08-01 01:00:00 26.9 4 Nordeste 19 Este 0 -- -- 42
2019-08-01 00:00:00 28.3 2 Sudeste 29 Norte 0 -- -- 39
2019-07-31 23:00:00 29.1 2 Sudeste 13 Noroeste 0 -- -- 33
2019-07-31 22:00:00 30.1 0 Calma 8 Noroeste 0 -- -- 31
2019-07-31 21:00:00 31.7 3 Noroeste 12 Noroeste 0 -- -- 29
2019-07-31 20:00:00 33 4 Noroeste 19 Noroeste 0 -- -- 29
2019-07-31 19:00:00 34.6 7 Noroeste 21 Noroeste 0 -- -- 29
2019-07-31 18:00:00 35.4 8 Noroeste 23 Noroeste 0 -- -- 31
2019-07-31 17:00:00 36.4 0 Calma 22 Oeste 0 -- -- 31
2019-07-31 16:00:00 35.2 3 Sur 20 Este 0 -- -- 36
2019-07-31 15:00:00 33.8 7 Sudeste 24 Este 0 -- -- 41
2019-07-31 14:00:00 32.4 7 Este 26 Sudeste 0 -- -- 44
2019-07-31 13:00:00 31.4 9 Sudeste 27 Sudeste 0 -- -- 48
2019-07-31 12:00:00 28.6 6 Sudeste 30 Sudeste 0 -- -- 51
2019-07-31 11:00:00 26.9 9 Sudeste 29 Sudeste 0 -- -- 51
2019-07-31 10:00:00 25.2 4 Sudeste 17 Sudeste 0 -- -- 50
2019-07-31 09:00:00 21.6 3 Este 17 Este 0 -- -- 50
2019-07-31 08:00:00 20.7 6 Este 17 Este 0 -- -- 49
2019-07-31 07:00:00 19.9 2 Sudeste 7 Nordeste 0 -- -- 48
2019-07-31 06:00:00 20.6 0 Calma 12 Sudeste 0 -- -- 47
2019-07-31 05:00:00 21.3 3 Este 15 Nordeste 0 -- -- 45
2019-07-31 04:00:00 22.6 4 Este 14 Este 0 -- -- 42
2019-07-31 03:00:00 24 6 Este 19 Nordeste 0 -- -- 39
2019-07-31 02:00:00 25 6 Nordeste 19 Nordeste 0 -- -- 39
2019-07-31 01:00:00 25 6 Nordeste 19 Nordeste 0 -- -- 38
2019-07-31 00:00:00 25.3 7 Nordeste 26 Norte 0 -- -- 37
2019-07-30 23:00:00 25.6 11 Norte 36 Norte 0 -- -- 36
2019-07-30 22:00:00 26.9 12 Norte 36 Norte 0 -- -- 35
2019-07-30 21:00:00 28.4 15 Norte 34 Nordeste 0 -- -- 33
2019-07-30 20:00:00 29.7 13 Norte 29 Norte 0 -- -- 32
2019-07-30 19:00:00 31.5 9 Norte 30 Norte 0 -- -- 32
2019-07-30 18:00:00 32.1 7 Norte 25 Nordeste 0 -- -- 33
2019-07-30 17:00:00 32.3 3 Nordeste 22 Noroeste 0 -- -- 34
2019-07-30 16:00:00 30.9 8 Norte 22 Nordeste 0 -- -- 35
2019-07-30 15:00:00 30.1 3 Este 21 Nordeste 0 -- -- 36
2019-07-30 14:00:00 29.4 4 Oeste 19 Norte 0 -- -- 39
2019-07-30 13:00:00 27.3 5 Norte 21 Norte 0 -- -- 42
2019-07-30 12:00:00 25.2 7 Norte 24 Norte 0 -- -- 48
2019-07-30 11:00:00 22.7 6 Norte 23 Norte 0 -- -- 53
2019-07-30 10:00:00 19.6 7 Norte 22 Norte 0 -- -- 60
2019-07-30 09:00:00 17 10 Nordeste 38 Norte 0 -- -- 65
2019-07-30 08:00:00 16.1 14 Nordeste 39 Nordeste 0 -- -- 66
2019-07-30 07:00:00 16.3 16 Norte 46 Norte 0 -- -- 64
2019-07-30 06:00:00 17.1 19 Norte 54 Norte 0 -- -- 61
2019-07-30 05:00:00 18 15 Norte 44 Norte 0 -- -- 58
2019-07-30 04:00:00 18.4 12 Nordeste 44 Norte 0 -- -- 55
2019-07-30 03:00:00 19.5 16 Norte 49 Norte 0 -- -- 55
2019-07-30 02:00:00 20.4 13 Norte 45 Norte 0 -- -- 53
2019-07-30 01:00:00 21.6 12 Norte 38 Nordeste 0 -- -- 48
2019-07-30 00:00:00 22.6 8 Norte 31 Este 0 -- -- 42
2019-07-29 23:00:00 23.7 7 Norte 25 Noroeste 0 -- -- 42
2019-07-29 22:00:00 25.3 6 Norte 26 Noroeste 0 -- -- 39
2019-07-29 21:00:00 27.3 10 Noroeste 29 Noroeste 0 -- -- 35
2019-07-29 20:00:00 29.7 8 Noroeste 31 Noroeste 0 -- -- 34
2019-07-29 19:00:00 31.1 12 Noroeste 28 Noroeste 0 -- -- 33
2019-07-29 18:00:00 31.7 13 Oeste 32 Oeste 0 -- -- 31
2019-07-29 17:00:00 31.5 14 Oeste 37 Oeste 0 -- -- 38
2019-07-29 16:00:00 30.6 10 Oeste 29 Oeste 0 -- -- 42
2019-07-29 15:00:00 30.1 12 Oeste 30 Noroeste 0 -- -- 46
2019-07-29 14:00:00 29.9 10 Oeste 25 Oeste 0 -- -- 48
2019-07-29 13:00:00 27.8 9 Oeste 22 Oeste 0 -- -- 48
2019-07-29 12:00:00 27.1 8 Noroeste 23 Noroeste 0 -- -- 50
2019-07-29 11:00:00 25.5 6 Noroeste 23 Nordeste 0 -- -- 51
2019-07-29 10:00:00 21.6 8 Noroeste 27 Noroeste 0 -- -- 61
2019-07-29 09:00:00 19.2 6 Noroeste 23 Norte 0 -- -- 63
2019-07-29 08:00:00 16.8 6 Oeste 19 Noroeste 0 -- -- 72
2019-07-29 07:00:00 17.3 6 Oeste 16 Oeste 0 -- -- 71
2019-07-29 06:00:00 18.8 9 Oeste 14 Oeste 0 -- -- 66
2019-07-29 05:00:00 20.2 5 Noroeste 16 Noroeste 0 -- -- 61
2019-07-29 04:00:00 21.3 6 Noroeste 21 Noroeste 0 -- -- 58
2019-07-29 03:00:00 22.5 5 Noroeste 17 Noroeste 0 -- -- 57
2019-07-29 02:00:00 23.5 4 Oeste 12 Oeste 0 -- -- 54
2019-07-29 01:00:00 24.8 6 Oeste 15 Sudoeste 0 -- -- 51
2019-07-29 00:00:00 26.1 0 Calma 11 Sur 0 -- -- 46
2019-07-28 23:00:00 27.2 0 Calma 4 Este 0 -- -- 42
2019-07-28 22:00:00 28.8 0 Calma 9 Oeste 0 -- -- 39
2019-07-28 21:00:00 30.2 5 Sudoeste 13 Oeste 0 -- -- 36
2019-07-28 20:00:00 31.5 5 Oeste 17 Noroeste 0 -- -- 35
2019-07-28 19:00:00 32.6 5 Oeste 22 Sudoeste 0 -- -- 35
2019-07-28 18:00:00 32.4 10 Oeste 24 Oeste 0 -- -- 37
2019-07-28 17:00:00 32.4 6 Oeste 23 Noroeste 0 -- -- 40
2019-07-28 16:00:00 31.8 6 Noroeste 20 Oeste 0 -- -- 42
2019-07-28 15:00:00 31.7 4 Sur 14 Oeste 0 -- -- 42
2019-07-28 14:00:00 29.8 4 Oeste 18 Sur 0 -- -- 45
2019-07-28 13:00:00 29.4 4 Sudeste 18 Sudeste 0 -- -- 48
2019-07-28 12:00:00 27.1 6 Sudeste 24 Sudeste 0 -- -- 53
2019-07-28 11:00:00 25.4 7 Sudeste 27 Este 0 -- -- 58
2019-07-28 10:00:00 23.4 9 Este 29 Este 0 -- -- 62
2019-07-28 09:00:00 19.7 5 Este 16 Este 0 -- -- 73
2019-07-28 08:00:00 18.5 3 Este 9 Este 0 -- -- 74
2019-07-28 07:00:00 18.3 0 Calma 5 Sudeste 0 -- -- 72
2019-07-28 06:00:00 19.6 0 Calma 17 Nordeste 0 -- -- 68
2019-07-28 05:00:00 20.7 8 Nordeste 22 Norte 0 -- -- 66
2019-07-28 04:00:00 21.2 8 Norte 28 Norte 0 -- -- 64
2019-07-28 03:00:00 22.2 10 Norte 31 Nordeste 0 -- -- 62
2019-07-28 02:00:00 23.2 10 Norte 28 Norte 0 -- -- 59
2019-07-28 01:00:00 22.6 5 Noroeste 13 Noroeste 0 -- -- 62
2019-07-28 00:00:00 23.5 4 Noroeste 17 Oeste 0 -- -- 59
2019-07-27 23:00:00 24.1 8 Oeste 29 Oeste 0 -- -- 56
2019-07-26 12:00:00 25.5 9 Noroeste 30 Noroeste 0 -- -- 59
2019-07-26 11:00:00 23.7 8 Norte 32 Noroeste 0 -- -- 65
2019-07-26 10:00:00 22 13 Noroeste 39 Noroeste 0 -- -- 72
2019-07-26 09:00:00 19.7 5 Oeste 22 Oeste 0 -- -- 81
2019-07-26 08:00:00 18.4 7 Oeste 19 Noroeste 0 -- -- 85
2019-07-26 07:00:00 19.3 8 Noroeste 22 Noroeste 0 -- -- 84
2019-07-26 06:00:00 20.6 10 Noroeste 27 Noroeste 0 -- -- 83
2019-07-26 05:00:00 21.3 7 Noroeste 18 Noroeste 0 -- -- 80
2019-07-26 04:00:00 22.3 5 Noroeste 13 Noroeste 0 -- -- 76
2019-07-26 03:00:00 22.6 6 Noroeste 18 Noroeste 0 -- -- 75
2019-07-26 02:00:00 23.6 5 Noroeste 21 Noroeste 0 -- -- 70
2019-07-26 01:00:00 24.5 9 Oeste 26 Sudoeste 0 -- -- 65
2019-07-26 00:00:00 25.4 10 Oeste 28 Oeste 0 -- -- 62
2019-07-25 23:00:00 26.8 11 Oeste 45 Noroeste 0 -- -- 56
2019-07-25 22:00:00 29 12 Oeste 23 Sudoeste 0 -- -- 47
2019-07-25 21:00:00 30.2 6 Oeste 27 Oeste 0 -- -- 42
2019-07-25 20:00:00 32.4 14 Oeste 36 Oeste 0 -- -- 38
2019-07-25 19:00:00 34.3 13 Oeste 30 Sudoeste 0 -- -- 39
2019-07-25 18:00:00 34.8 7 Noroeste 24 Noroeste 0 -- -- 42
2019-07-25 17:00:00 34.5 9 Noroeste 27 Noroeste 0 -- -- 42
2019-07-25 16:00:00 34.4 5 Oeste 31 Oeste 0 -- -- 42
2019-07-25 15:00:00 34.5 5 Sudoeste 21 Oeste 0 -- -- 42
2019-07-25 14:00:00 32.3 6 Oeste 20 Sudoeste 0 -- -- 46
2019-07-25 13:00:00 31 6 Noroeste 19 Noroeste 0 -- -- 48
2019-07-25 12:00:00 29.6 4 Sudoeste 12 Oeste 0 -- -- 50
2019-07-25 11:00:00 26.6 3 Noroeste 15 Noroeste 0 -- -- 55
2019-07-25 10:00:00 24.5 4 Noroeste 18 Noroeste 0 -- -- 59
2019-07-25 09:00:00 23.5 5 Oeste 14 Noroeste 0 -- -- 59
2019-07-25 08:00:00 21.8 0 Calma -- -- 0 -- -- 61
2019-07-25 07:00:00 22.9 0 Calma -- -- 0 -- -- 59
2019-07-25 06:00:00 23.8 0 Calma -- -- 0 -- -- 55
2019-07-25 05:00:00 24.7 0 Calma -- -- 0 -- -- 51
2019-07-25 04:00:00 25.5 0 Calma 13 Oeste 0 -- -- 49
2019-07-25 03:00:00 26.4 4 Noroeste 13 Noroeste 0 -- -- 48
2019-07-25 02:00:00 27 4 Noroeste 11 Noroeste 0 -- -- 48
2019-07-25 01:00:00 28.2 5 Noroeste 14 Noroeste 0 -- -- 45
2019-07-25 00:00:00 29.8 5 Oeste 18 Oeste 0 -- -- 41
2019-07-24 23:00:00 31.5 7 Oeste 26 Oeste 0 -- -- 38
2019-07-24 22:00:00 33.9 10 Oeste 24 Oeste 0 -- -- 34
2019-07-24 21:00:00 35.7 6 Oeste 23 Sudoeste 0 -- -- 34
2019-07-24 20:00:00 37.3 6 Sudoeste 27 Sudoeste 0 -- -- 33
2019-07-24 19:00:00 39 2 Oeste 18 Oeste 0 -- -- 34
2019-07-24 18:00:00 37.7 9 Noroeste 24 Oeste 0 -- -- 36
2019-07-24 17:00:00 38 8 Noroeste 26 Noroeste 0 -- -- 37
2019-07-24 16:00:00 38.1 3 Noroeste 31 Sur 0 -- -- 37
2019-07-24 15:00:00 37.5 3 Sur 23 Sur 0 -- -- 38
2019-07-24 14:00:00 37 3 Sudeste 23 Este 0 -- -- 38
2019-07-24 13:00:00 35.1 5 Sudeste 26 Sudeste 0 -- -- 41
2019-07-24 12:00:00 33.6 8 Sudeste 27 Este 0 -- -- 42
2019-07-24 11:00:00 31.2 6 Sudeste 22 Este 0 -- -- 47
2019-07-24 10:00:00 28.6 6 Este 22 Este 0 -- -- 52
2019-07-24 09:00:00 25.9 6 Este 20 Sudeste 0 -- -- 54
2019-07-24 08:00:00 25.4 10 Este 26 Este 0 -- -- 54
2019-07-24 07:00:00 25.9 9 Este 24 Este 0 -- -- 53
2019-07-24 06:00:00 25.8 7 Este 22 Este 0 -- -- 53
2019-07-24 05:00:00 26 12 Sudeste 29 Sudeste 0 -- -- 54
2019-07-24 04:00:00 26.1 5 Este 15 Este 0 -- -- 52
2019-07-24 03:00:00 27.4 3 Este 26 Este 0 -- -- 49
2019-07-24 02:00:00 27.9 6 Este 20 Este 0 -- -- 48
2019-07-24 01:00:00 29.2 8 Este 24 Este 0 -- -- 45
2019-07-24 00:00:00 29.9 6 Este 24 Sudeste 0 -- -- 42
2019-07-23 23:00:00 32.3 5 Sur 15 Sudeste 0 -- -- 42
2019-07-23 22:00:00 33.4 2 Sudoeste 19 Oeste 0 -- -- 38
2019-07-23 21:00:00 35 7 Oeste 29 Oeste 0 -- -- 38
2019-07-23 20:00:00 36.1 14 Oeste 31 Oeste 0 -- -- 38
2019-07-23 19:00:00 37.5 3 Noroeste 16 Oeste 0 -- -- 38
2019-07-23 18:00:00 36.4 2 Oeste 16 Sur 0 -- -- 38
2019-07-23 17:00:00 38.4 4 Sudeste 18 Este 0 -- -- 37
2019-07-23 16:00:00 37.1 4 Sur 25 Sudeste 0 -- -- 38
2019-07-23 15:00:00 35.8 6 Sudeste 27 Sudeste 0 -- -- 39
2019-07-23 14:00:00 34.7 5 Sudeste 28 Este 0 -- -- 42
2019-07-23 13:00:00 31.8 8 Sudeste 35 Sudeste 0 -- -- 47
2019-07-23 12:00:00 29.6 10 Sudeste 36 Este 0 -- -- 50
2019-07-23 11:00:00 29.2 15 Este 46 Este 0 -- -- 51
2019-07-23 10:00:00 27.3 15 Sudeste 39 Sudeste 0 -- -- 58
2019-07-23 09:00:00 25.2 12 Este 26 Este 0 -- -- 65
2019-07-23 08:00:00 24.1 4 Este 16 Sudeste 0 -- -- 68
2019-07-23 07:00:00 24 5 Este 18 Nordeste 0 -- -- 66
2019-07-23 06:00:00 25.5 8 Nordeste 45 Este 0 -- -- 62
2019-07-23 05:00:00 24.4 16 Este 46 Este 0.4 -- -- 65
2019-07-23 04:00:00 25.9 4 Sudeste 29 Este 0.4 -- -- 58
2019-07-23 03:00:00 29 5 Sudeste 16 Este 0.1 -- -- 47
2019-07-23 02:00:00 28.5 6 Este 20 Sudeste 0 -- -- 47
2019-07-23 01:00:00 31.9 7 Nordeste 22 Este 0 -- -- 39
2019-07-23 00:00:00 31.7 6 Este 28 Este 0 -- -- 39